sensor_id;sensor_type;location;lat;lon;timestamp;temperature;humidity
4451;DHT22;2238;50.180;9.230;2022-08-19T00:02:30;20.80;99.90
4451;DHT22;2238;50.180;9.230;2022-08-19T00:05:30;20.80;99.90
4451;DHT22;2238;50.180;9.230;2022-08-19T00:08:31;20.80;99.90
4451;DHT22;2238;50.180;9.230;2022-08-19T00:11:32;20.10;99.90
4451;DHT22;2238;50.180;9.230;2022-08-19T00:14:34;20.10;99.90
4451;DHT22;2238;50.180;9.230;2022-08-19T00:17:35;20.60;99.90
4451;DHT22;2238;50.180;9.230;2022-08-19T00:20:36;20.60;99.90
4451;DHT22;2238;50.180;9.230;2022-08-19T00:23:38;20.70;99.90
4451;DHT22;2238;50.180;9.230;2022-08-19T00:26:39;20.70;99.90
4451;DHT22;2238;50.180;9.230;2022-08-19T00:29:40;20.70;99.90
4451;DHT22;2238;50.180;9.230;2022-08-19T00:32:41;20.50;99.90
4451;DHT22;2238;50.180;9.230;2022-08-19T00:35:41;20.40;99.90
4451;DHT22;2238;50.180;9.230;2022-08-19T00:38:42;20.50;99.90
4451;DHT22;2238;50.180;9.230;2022-08-19T00:41:44;20.50;99.90
4451;DHT22;2238;50.180;9.230;2022-08-19T00:44:47;20.10;99.90
4451;DHT22;2238;50.180;9.230;2022-08-19T00:47:49;19.80;99.90
4451;DHT22;2238;50.180;9.230;2022-08-19T00:50:51;19.60;99.90
4451;DHT22;2238;50.180;9.230;2022-08-19T00:53:55;20.10;99.90
4451;DHT22;2238;50.180;9.230;2022-08-19T00:56:58;20.50;99.90
4451;DHT22;2238;50.180;9.230;2022-08-19T01:00:00;20.40;99.90
4451;DHT22;2238;50.180;9.230;2022-08-19T01:03:03;20.40;99.90
4451;DHT22;2238;50.180;9.230;2022-08-19T01:06:05;20.50;99.90
4451;DHT22;2238;50.180;9.230;2022-08-19T01:09:06;19.90;99.90
4451;DHT22;2238;50.180;9.230;2022-08-19T01:12:06;21.00;99.90
4451;DHT22;2238;50.180;9.230;2022-08-19T01:15:10;20.00;99.90
4451;DHT22;2238;50.180;9.230;2022-08-19T01:18:14;22.90;99.90
4451;DHT22;2238;50.180;9.230;2022-08-19T01:21:24;23.50;99.90
4451;DHT22;2238;50.180;9.230;2022-08-19T01:24:26;20.20;99.90
4451;DHT22;2238;50.180;9.230;2022-08-19T01:27:29;20.30;99.90
4451;DHT22;2238;50.180;9.230;2022-08-19T01:30:37;20.40;99.90
4451;DHT22;2238;50.180;9.230;2022-08-19T01:33:38;20.30;99.90
4451;DHT22;2238;50.180;9.230;2022-08-19T01:36:42;20.30;99.90
4451;DHT22;2238;50.180;9.230;2022-08-19T01:39:44;20.40;99.90
4451;DHT22;2238;50.180;9.230;2022-08-19T01:42:46;20.20;99.90
4451;DHT22;2238;50.180;9.230;2022-08-19T01:45:47;20.20;99.90
4451;DHT22;2238;50.180;9.230;2022-08-19T01:48:48;20.10;99.90
4451;DHT22;2238;50.180;9.230;2022-08-19T01:51:49;19.40;99.90
4451;DHT22;2238;50.180;9.230;2022-08-19T01:54:50;19.20;99.90
4451;DHT22;2238;50.180;9.230;2022-08-19T01:57:55;19.70;99.90
4451;DHT22;2238;50.180;9.230;2022-08-19T02:00:57;19.80;99.90
4451;DHT22;2238;50.180;9.230;2022-08-19T02:03:59;19.50;99.90
4451;DHT22;2238;50.180;9.230;2022-08-19T02:07:01;19.60;99.90
4451;DHT22;2238;50.180;9.230;2022-08-19T02:10:06;19.90;99.90
4451;DHT22;2238;50.180;9.230;2022-08-19T02:13:08;20.10;99.90
4451;DHT22;2238;50.180;9.230;2022-08-19T02:16:09;19.90;99.90
4451;DHT22;2238;50.180;9.230;2022-08-19T02:19:10;19.30;99.90
4451;DHT22;2238;50.180;9.230;2022-08-19T02:22:10;19.20;99.90
4451;DHT22;2238;50.180;9.230;2022-08-19T02:25:13;19.10;99.90
4451;DHT22;2238;50.180;9.230;2022-08-19T02:28:14;19.30;99.90
4451;DHT22;2238;50.180;9.230;2022-08-19T02:31:17;19.30;99.90
4451;DHT22;2238;50.180;9.230;2022-08-19T02:34:18;19.50;99.90
4451;DHT22;2238;50.180;9.230;2022-08-19T02:37:18;19.50;99.90
4451;DHT22;2238;50.180;9.230;2022-08-19T02:40:38;20.00;99.90
4451;DHT22;2238;50.180;9.230;2022-08-19T02:43:38;20.10;99.90
4451;DHT22;2238;50.180;9.230;2022-08-19T02:46:40;19.90;99.90
4451;DHT22;2238;50.180;9.230;2022-08-19T02:49:41;19.40;99.90
4451;DHT22;2238;50.180;9.230;2022-08-19T02:52:42;19.40;99.90
4451;DHT22;2238;50.180;9.230;2022-08-19T02:55:44;19.60;99.90
4451;DHT22;2238;50.180;9.230;2022-08-19T02:58:46;19.60;99.90
4451;DHT22;2238;50.180;9.230;2022-08-19T03:01:48;20.00;99.90
4451;DHT22;2238;50.180;9.230;2022-08-19T03:04:49;20.30;99.90
4451;DHT22;2238;50.180;9.230;2022-08-19T03:07:50;20.50;99.90
4451;DHT22;2238;50.180;9.230;2022-08-19T03:10:51;20.50;99.90
4451;DHT22;2238;50.180;9.230;2022-08-19T03:13:53;23.70;99.90
4451;DHT22;2238;50.180;9.230;2022-08-19T03:16:54;20.10;99.90
4451;DHT22;2238;50.180;9.230;2022-08-19T03:19:55;19.70;99.90
4451;DHT22;2238;50.180;9.230;2022-08-19T03:22:55;19.70;99.90
4451;DHT22;2238;50.180;9.230;2022-08-19T03:25:56;19.70;99.90
4451;DHT22;2238;50.180;9.230;2022-08-19T03:28:57;20.10;99.90
4451;DHT22;2238;50.180;9.230;2022-08-19T03:32:03;20.30;99.90
4451;DHT22;2238;50.180;9.230;2022-08-19T03:35:05;20.20;99.90
4451;DHT22;2238;50.180;9.230;2022-08-19T03:38:06;20.30;99.90
4451;DHT22;2238;50.180;9.230;2022-08-19T03:41:11;20.30;99.90
4451;DHT22;2238;50.180;9.230;2022-08-19T03:44:18;20.30;99.90
4451;DHT22;2238;50.180;9.230;2022-08-19T03:47:20;20.30;99.90
4451;DHT22;2238;50.180;9.230;2022-08-19T03:50:21;20.40;99.90
4451;DHT22;2238;50.180;9.230;2022-08-19T03:53:22;20.30;99.90
4451;DHT22;2238;50.180;9.230;2022-08-19T03:56:22;19.40;99.90
4451;DHT22;2238;50.180;9.230;2022-08-19T03:59:28;19.20;99.90
4451;DHT22;2238;50.180;9.230;2022-08-19T04:02:29;19.30;99.90
4451;DHT22;2238;50.180;9.230;2022-08-19T04:05:30;19.90;99.90
4451;DHT22;2238;50.180;9.230;2022-08-19T04:08:30;20.10;99.90
4451;DHT22;2238;50.180;9.230;2022-08-19T04:11:36;20.30;99.90
4451;DHT22;2238;50.180;9.230;2022-08-19T04:14:41;20.40;99.90
4451;DHT22;2238;50.180;9.230;2022-08-19T04:17:42;20.30;99.90
4451;DHT22;2238;50.180;9.230;2022-08-19T04:20:46;20.30;99.90
4451;DHT22;2238;50.180;9.230;2022-08-19T04:23:47;20.30;99.90
4451;DHT22;2238;50.180;9.230;2022-08-19T04:26:47;20.30;99.90
4451;DHT22;2238;50.180;9.230;2022-08-19T04:29:48;20.00;99.90
4451;DHT22;2238;50.180;9.230;2022-08-19T04:32:49;20.20;99.90
4451;DHT22;2238;50.180;9.230;2022-08-19T04:35:52;20.30;99.90
4451;DHT22;2238;50.180;9.230;2022-08-19T04:38:55;20.30;99.90
4451;DHT22;2238;50.180;9.230;2022-08-19T04:41:56;22.50;99.90
4451;DHT22;2238;50.180;9.230;2022-08-19T04:45:15;20.00;99.90
4451;DHT22;2238;50.180;9.230;2022-08-19T04:48:15;20.00;99.90
4451;DHT22;2238;50.180;9.230;2022-08-19T04:51:16;20.10;99.90
4451;DHT22;2238;50.180;9.230;2022-08-19T04:54:18;20.20;99.90
4451;DHT22;2238;50.180;9.230;2022-08-19T04:57:22;20.00;99.90
4451;DHT22;2238;50.180;9.230;2022-08-19T05:00:23;19.30;99.90
4451;DHT22;2238;50.180;9.230;2022-08-19T05:03:23;19.10;99.90
4451;DHT22;2238;50.180;9.230;2022-08-19T05:06:24;19.10;99.90
4451;DHT22;2238;50.180;9.230;2022-08-19T05:09:26;19.30;99.90
4451;DHT22;2238;50.180;9.230;2022-08-19T05:12:26;19.30;99.90
4451;DHT22;2238;50.180;9.230;2022-08-19T05:15:29;16.40;99.90
4451;DHT22;2238;50.180;9.230;2022-08-19T05:18:29;19.50;99.90
4451;DHT22;2238;50.180;9.230;2022-08-19T05:21:49;19.30;99.90
4451;DHT22;2238;50.180;9.230;2022-08-19T05:25:11;19.70;99.90
4451;DHT22;2238;50.180;9.230;2022-08-19T05:28:12;19.90;99.90
4451;DHT22;2238;50.180;9.230;2022-08-19T05:31:13;23.30;99.90
4451;DHT22;2238;50.180;9.230;2022-08-19T05:37:14;20.10;99.90
4451;DHT22;2238;50.180;9.230;2022-08-19T05:40:15;20.20;99.90
4451;DHT22;2238;50.180;9.230;2022-08-19T05:43:16;20.30;99.90
4451;DHT22;2238;50.180;9.230;2022-08-19T05:46:18;20.20;99.90
4451;DHT22;2238;50.180;9.230;2022-08-19T05:49:21;23.70;99.90
4451;DHT22;2238;50.180;9.230;2022-08-19T05:52:22;20.30;99.90
4451;DHT22;2238;50.180;9.230;2022-08-19T05:55:22;20.30;99.90
4451;DHT22;2238;50.180;9.230;2022-08-19T05:58:24;20.10;99.90
4451;DHT22;2238;50.180;9.230;2022-08-19T06:01:26;19.70;99.90
4451;DHT22;2238;50.180;9.230;2022-08-19T06:07:29;20.20;99.90
4451;DHT22;2238;50.180;9.230;2022-08-19T06:10:29;20.20;99.90
4451;DHT22;2238;50.180;9.230;2022-08-19T06:13:30;20.30;99.90
4451;DHT22;2238;50.180;9.230;2022-08-19T06:16:31;20.10;99.90
4451;DHT22;2238;50.180;9.230;2022-08-19T06:19:35;20.10;99.90
4451;DHT22;2238;50.180;9.230;2022-08-19T06:22:41;20.20;99.90
4451;DHT22;2238;50.180;9.230;2022-08-19T06:25:42;20.00;99.90
4451;DHT22;2238;50.180;9.230;2022-08-19T06:28:43;20.00;99.90
4451;DHT22;2238;50.180;9.230;2022-08-19T06:31:49;20.30;99.90
4451;DHT22;2238;50.180;9.230;2022-08-19T06:34:49;20.30;99.90
4451;DHT22;2238;50.180;9.230;2022-08-19T06:37:50;20.60;99.90
4451;DHT22;2238;50.180;9.230;2022-08-19T06:40:51;23.90;99.90
4451;DHT22;2238;50.180;9.230;2022-08-19T06:43:59;20.70;99.90
4451;DHT22;2238;50.180;9.230;2022-08-19T06:47:05;20.70;99.90
4451;DHT22;2238;50.180;9.230;2022-08-19T06:50:06;20.70;99.90
4451;DHT22;2238;50.180;9.230;2022-08-19T06:56:08;20.70;99.90
4451;DHT22;2238;50.180;9.230;2022-08-19T06:59:16;20.60;99.90
4451;DHT22;2238;50.180;9.230;2022-08-19T07:02:18;20.60;99.90
4451;DHT22;2238;50.180;9.230;2022-08-19T07:05:19;20.60;99.90
4451;DHT22;2238;50.180;9.230;2022-08-19T07:11:21;20.50;99.90
4451;DHT22;2238;50.180;9.230;2022-08-19T07:14:25;20.60;99.90
4451;DHT22;2238;50.180;9.230;2022-08-19T07:17:27;20.60;99.90
4451;DHT22;2238;50.180;9.230;2022-08-19T07:23:28;20.30;99.90
4451;DHT22;2238;50.180;9.230;2022-08-19T07:26:31;20.30;99.90
4451;DHT22;2238;50.180;9.230;2022-08-19T07:29:34;20.90;99.90
4451;DHT22;2238;50.180;9.230;2022-08-19T07:32:34;20.80;99.90
4451;DHT22;2238;50.180;9.230;2022-08-19T07:38:36;20.90;99.90
4451;DHT22;2238;50.180;9.230;2022-08-19T07:41:37;20.80;99.90
4451;DHT22;2238;50.180;9.230;2022-08-19T07:44:38;20.80;99.90
4451;DHT22;2238;50.180;9.230;2022-08-19T07:50:40;20.90;99.90
4451;DHT22;2238;50.180;9.230;2022-08-19T07:53:41;20.90;99.90
4451;DHT22;2238;50.180;9.230;2022-08-19T07:56:42;20.90;99.90
4451;DHT22;2238;50.180;9.230;2022-08-19T07:59:42;20.90;99.90
4451;DHT22;2238;50.180;9.230;2022-08-19T08:02:43;20.80;99.90
4451;DHT22;2238;50.180;9.230;2022-08-19T08:05:44;20.80;99.90
4451;DHT22;2238;50.180;9.230;2022-08-19T08:09:04;21.00;99.90
4451;DHT22;2238;50.180;9.230;2022-08-19T08:12:13;21.00;99.90
4451;DHT22;2238;50.180;9.230;2022-08-19T08:15:15;21.00;99.90
4451;DHT22;2238;50.180;9.230;2022-08-19T08:18:16;21.10;99.90
4451;DHT22;2238;50.180;9.230;2022-08-19T08:21:17;21.30;99.90
4451;DHT22;2238;50.180;9.230;2022-08-19T08:24:18;21.90;99.90
4451;DHT22;2238;50.180;9.230;2022-08-19T08:27:19;21.70;99.90
4451;DHT22;2238;50.180;9.230;2022-08-19T08:30:22;21.90;99.90
4451;DHT22;2238;50.180;9.230;2022-08-19T08:33:24;22.00;99.90
4451;DHT22;2238;50.180;9.230;2022-08-19T08:36:26;21.90;99.90
4451;DHT22;2238;50.180;9.230;2022-08-19T08:39:27;21.90;99.90
4451;DHT22;2238;50.180;9.230;2022-08-19T08:42:34;22.00;99.90
4451;DHT22;2238;50.180;9.230;2022-08-19T08:45:43;22.00;99.90
4451;DHT22;2238;50.180;9.230;2022-08-19T08:52:10;22.20;99.90
4451;DHT22;2238;50.180;9.230;2022-08-19T08:55:18;22.10;99.90
4451;DHT22;2238;50.180;9.230;2022-08-19T08:58:32;21.90;99.90
4451;DHT22;2238;50.180;9.230;2022-08-19T09:01:42;22.20;99.90
4451;DHT22;2238;50.180;9.230;2022-08-19T09:04:43;22.20;99.90
4451;DHT22;2238;50.180;9.230;2022-08-19T09:11:08;22.40;99.90
4451;DHT22;2238;50.180;9.230;2022-08-19T09:17:21;22.80;99.90
4451;DHT22;2238;50.180;9.230;2022-08-19T09:20:28;22.90;99.90
4451;DHT22;2238;50.180;9.230;2022-08-19T09:23:29;23.00;99.90
4451;DHT22;2238;50.180;9.230;2022-08-19T09:26:30;23.10;99.90
4451;DHT22;2238;50.180;9.230;2022-08-19T09:29:32;23.60;99.90
4451;DHT22;2238;50.180;9.230;2022-08-19T09:32:33;23.60;99.90
4451;DHT22;2238;50.180;9.230;2022-08-19T09:35:34;23.20;99.90
4451;DHT22;2238;50.180;9.230;2022-08-19T09:38:37;23.20;99.90
4451;DHT22;2238;50.180;9.230;2022-08-19T09:41:40;23.60;99.90
4451;DHT22;2238;50.180;9.230;2022-08-19T09:44:42;23.80;99.90
4451;DHT22;2238;50.180;9.230;2022-08-19T09:47:43;23.60;99.90
4451;DHT22;2238;50.180;9.230;2022-08-19T09:50:44;23.80;99.90
4451;DHT22;2238;50.180;9.230;2022-08-19T09:53:45;23.70;99.90
4451;DHT22;2238;50.180;9.230;2022-08-19T09:56:45;23.30;99.90
4451;DHT22;2238;50.180;9.230;2022-08-19T09:59:46;25.30;99.90
4451;DHT22;2238;50.180;9.230;2022-08-19T10:02:47;24.60;99.90
4451;DHT22;2238;50.180;9.230;2022-08-19T10:05:48;23.80;99.90
4451;DHT22;2238;50.180;9.230;2022-08-19T10:08:50;23.60;99.90
4451;DHT22;2238;50.180;9.230;2022-08-19T10:11:51;23.60;99.90
4451;DHT22;2238;50.180;9.230;2022-08-19T10:36:13;24.90;99.90
4451;DHT22;2238;50.180;9.230;2022-08-19T10:39:17;25.00;99.90
4451;DHT22;2238;50.180;9.230;2022-08-19T10:42:18;24.40;99.90
4451;DHT22;2238;50.180;9.230;2022-08-19T10:45:19;24.40;99.90
4451;DHT22;2238;50.180;9.230;2022-08-19T10:48:22;25.00;99.90
4451;DHT22;2238;50.180;9.230;2022-08-19T10:51:23;25.30;99.90
4451;DHT22;2238;50.180;9.230;2022-08-19T10:54:42;25.60;99.90
4451;DHT22;2238;50.180;9.230;2022-08-19T10:58:01;26.00;99.90
4451;DHT22;2238;50.180;9.230;2022-08-19T11:01:02;26.20;99.90
4451;DHT22;2238;50.180;9.230;2022-08-19T11:04:04;26.30;99.90
4451;DHT22;2238;50.180;9.230;2022-08-19T11:07:06;26.30;99.90
4451;DHT22;2238;50.180;9.230;2022-08-19T11:10:08;26.40;99.90
4451;DHT22;2238;50.180;9.230;2022-08-19T11:13:09;25.90;99.90
4451;DHT22;2238;50.180;9.230;2022-08-19T11:16:13;25.80;99.90
4451;DHT22;2238;50.180;9.230;2022-08-19T11:19:14;25.70;99.90
4451;DHT22;2238;50.180;9.230;2022-08-19T11:22:17;25.70;99.90
4451;DHT22;2238;50.180;9.230;2022-08-19T11:25:17;26.10;99.90
4451;DHT22;2238;50.180;9.230;2022-08-19T11:28:18;26.40;99.90
4451;DHT22;2238;50.180;9.230;2022-08-19T11:31:22;26.40;99.90
4451;DHT22;2238;50.180;9.230;2022-08-19T11:34:25;26.70;99.90
4451;DHT22;2238;50.180;9.230;2022-08-19T11:37:26;26.80;99.90
4451;DHT22;2238;50.180;9.230;2022-08-19T11:40:27;27.20;99.90
4451;DHT22;2238;50.180;9.230;2022-08-19T11:43:28;26.90;99.90
4451;DHT22;2238;50.180;9.230;2022-08-19T11:46:29;26.70;99.90
4451;DHT22;2238;50.180;9.230;2022-08-19T11:49:30;26.80;99.90
4451;DHT22;2238;50.180;9.230;2022-08-19T11:52:30;26.90;99.90
4451;DHT22;2238;50.180;9.230;2022-08-19T11:55:31;26.70;99.90
4451;DHT22;2238;50.180;9.230;2022-08-19T11:58:32;26.80;99.90
4451;DHT22;2238;50.180;9.230;2022-08-19T12:01:32;27.00;99.90
4451;DHT22;2238;50.180;9.230;2022-08-19T12:04:34;27.20;99.90
4451;DHT22;2238;50.180;9.230;2022-08-19T12:07:35;26.80;99.90
4451;DHT22;2238;50.180;9.230;2022-08-19T12:10:35;26.40;99.90
4451;DHT22;2238;50.180;9.230;2022-08-19T12:13:37;26.70;99.90
4451;DHT22;2238;50.180;9.230;2022-08-19T12:16:39;25.70;99.90
4451;DHT22;2238;50.180;9.230;2022-08-19T12:19:40;26.70;99.90
4451;DHT22;2238;50.180;9.230;2022-08-19T12:22:42;26.70;99.90
4451;DHT22;2238;50.180;9.230;2022-08-19T12:25:47;26.40;99.90
4451;DHT22;2238;50.180;9.230;2022-08-19T12:28:52;26.70;99.90
4451;DHT22;2238;50.180;9.230;2022-08-19T12:31:52;27.30;99.90
4451;DHT22;2238;50.180;9.230;2022-08-19T12:34:53;27.70;99.90
4451;DHT22;2238;50.180;9.230;2022-08-19T12:37:54;27.70;99.90
4451;DHT22;2238;50.180;9.230;2022-08-19T12:40:56;27.30;99.90
4451;DHT22;2238;50.180;9.230;2022-08-19T12:43:56;27.60;99.90
4451;DHT22;2238;50.180;9.230;2022-08-19T12:46:58;27.30;99.90
4451;DHT22;2238;50.180;9.230;2022-08-19T12:49:59;26.90;99.90
4451;DHT22;2238;50.180;9.230;2022-08-19T12:53:00;26.90;99.90
4451;DHT22;2238;50.180;9.230;2022-08-19T12:56:00;26.90;99.90
4451;DHT22;2238;50.180;9.230;2022-08-19T12:59:02;27.10;99.90
4451;DHT22;2238;50.180;9.230;2022-08-19T13:02:04;27.00;99.90
4451;DHT22;2238;50.180;9.230;2022-08-19T13:05:09;26.70;99.90
4451;DHT22;2238;50.180;9.230;2022-08-19T13:08:11;26.60;99.90
4451;DHT22;2238;50.180;9.230;2022-08-19T13:11:14;26.40;99.90
4451;DHT22;2238;50.180;9.230;2022-08-19T13:14:15;26.40;99.90
4451;DHT22;2238;50.180;9.230;2022-08-19T13:17:16;26.60;99.90
4451;DHT22;2238;50.180;9.230;2022-08-19T13:20:18;26.60;99.90
4451;DHT22;2238;50.180;9.230;2022-08-19T13:23:19;26.60;99.90
4451;DHT22;2238;50.180;9.230;2022-08-19T13:26:20;26.50;99.90
4451;DHT22;2238;50.180;9.230;2022-08-19T13:29:21;26.60;99.90
4451;DHT22;2238;50.180;9.230;2022-08-19T13:32:40;26.40;99.90
4451;DHT22;2238;50.180;9.230;2022-08-19T13:36:00;26.60;99.90
4451;DHT22;2238;50.180;9.230;2022-08-19T13:39:02;26.60;99.90
4451;DHT22;2238;50.180;9.230;2022-08-19T13:42:03;26.60;99.90
4451;DHT22;2238;50.180;9.230;2022-08-19T13:45:05;26.80;99.90
4451;DHT22;2238;50.180;9.230;2022-08-19T13:48:07;26.70;99.90
4451;DHT22;2238;50.180;9.230;2022-08-19T13:51:09;26.70;99.90
4451;DHT22;2238;50.180;9.230;2022-08-19T13:54:11;26.80;99.90
4451;DHT22;2238;50.180;9.230;2022-08-19T13:57:13;26.80;99.90
4451;DHT22;2238;50.180;9.230;2022-08-19T14:00:16;26.80;99.90
4451;DHT22;2238;50.180;9.230;2022-08-19T14:03:18;26.90;99.90
4451;DHT22;2238;50.180;9.230;2022-08-19T14:06:19;26.70;99.90
4451;DHT22;2238;50.180;9.230;2022-08-19T14:09:21;26.70;99.90
4451;DHT22;2238;50.180;9.230;2022-08-19T14:12:22;26.80;99.90
4451;DHT22;2238;50.180;9.230;2022-08-19T14:15:23;26.70;99.90
4451;DHT22;2238;50.180;9.230;2022-08-19T14:18:24;26.50;99.90
4451;DHT22;2238;50.180;9.230;2022-08-19T14:21:25;26.40;99.90
4451;DHT22;2238;50.180;9.230;2022-08-19T14:24:27;26.50;99.90
4451;DHT22;2238;50.180;9.230;2022-08-19T14:27:27;26.50;99.90
4451;DHT22;2238;50.180;9.230;2022-08-19T14:30:31;26.40;99.90
4451;DHT22;2238;50.180;9.230;2022-08-19T14:33:32;26.60;99.90
4451;DHT22;2238;50.180;9.230;2022-08-19T14:36:32;26.70;99.90
4451;DHT22;2238;50.180;9.230;2022-08-19T14:39:34;26.80;99.90
4451;DHT22;2238;50.180;9.230;2022-08-19T14:42:36;26.70;99.90
4451;DHT22;2238;50.180;9.230;2022-08-19T14:45:38;26.70;99.90
4451;DHT22;2238;50.180;9.230;2022-08-19T14:48:39;26.60;99.90
4451;DHT22;2238;50.180;9.230;2022-08-19T14:51:39;26.90;99.90
4451;DHT22;2238;50.180;9.230;2022-08-19T14:54:40;26.90;99.90
4451;DHT22;2238;50.180;9.230;2022-08-19T14:57:41;26.90;99.90
4451;DHT22;2238;50.180;9.230;2022-08-19T15:00:42;26.90;99.90
4451;DHT22;2238;50.180;9.230;2022-08-19T15:03:42;28.40;99.90
4451;DHT22;2238;50.180;9.230;2022-08-19T15:06:43;27.10;99.90
4451;DHT22;2238;50.180;9.230;2022-08-19T15:09:44;27.00;99.90
4451;DHT22;2238;50.180;9.230;2022-08-19T15:12:44;26.90;99.90
4451;DHT22;2238;50.180;9.230;2022-08-19T15:15:45;26.80;99.90
4451;DHT22;2238;50.180;9.230;2022-08-19T15:18:51;26.90;99.90
4451;DHT22;2238;50.180;9.230;2022-08-19T15:21:52;27.00;99.90
4451;DHT22;2238;50.180;9.230;2022-08-19T15:24:54;27.10;99.90
4451;DHT22;2238;50.180;9.230;2022-08-19T15:27:56;27.20;99.90
4451;DHT22;2238;50.180;9.230;2022-08-19T15:30:56;27.10;99.90
4451;DHT22;2238;50.180;9.230;2022-08-19T15:33:57;27.10;99.90
4451;DHT22;2238;50.180;9.230;2022-08-19T15:36:58;27.00;99.90
4451;DHT22;2238;50.180;9.230;2022-08-19T15:39:59;27.00;99.90
4451;DHT22;2238;50.180;9.230;2022-08-19T15:43:00;26.90;99.90
4451;DHT22;2238;50.180;9.230;2022-08-19T15:46:00;26.80;99.90
4451;DHT22;2238;50.180;9.230;2022-08-19T15:49:02;26.80;99.90
4451;DHT22;2238;50.180;9.230;2022-08-19T15:52:03;26.70;99.90
4451;DHT22;2238;50.180;9.230;2022-08-19T15:55:05;26.70;99.90
4451;DHT22;2238;50.180;9.230;2022-08-19T15:58:09;26.70;99.90
4451;DHT22;2238;50.180;9.230;2022-08-19T16:01:29;26.60;99.90
4451;DHT22;2238;50.180;9.230;2022-08-19T16:04:50;26.60;99.90
4451;DHT22;2238;50.180;9.230;2022-08-19T16:08:10;26.60;99.90
4451;DHT22;2238;50.180;9.230;2022-08-19T16:11:12;26.50;99.90
4451;DHT22;2238;50.180;9.230;2022-08-19T16:14:18;26.40;99.90
4451;DHT22;2238;50.180;9.230;2022-08-19T16:17:19;26.40;99.90
4451;DHT22;2238;50.180;9.230;2022-08-19T16:20:19;26.40;99.90
4451;DHT22;2238;50.180;9.230;2022-08-19T16:23:21;26.40;99.90
4451;DHT22;2238;50.180;9.230;2022-08-19T16:26:22;26.40;99.90
4451;DHT22;2238;50.180;9.230;2022-08-19T16:29:26;26.30;99.90
4451;DHT22;2238;50.180;9.230;2022-08-19T16:32:27;26.30;99.90
4451;DHT22;2238;50.180;9.230;2022-08-19T16:35:28;26.30;99.90
4451;DHT22;2238;50.180;9.230;2022-08-19T16:38:29;26.40;99.90
4451;DHT22;2238;50.180;9.230;2022-08-19T16:41:29;26.40;99.90
4451;DHT22;2238;50.180;9.230;2022-08-19T16:44:30;26.40;99.90
4451;DHT22;2238;50.180;9.230;2022-08-19T16:47:30;26.30;99.90
4451;DHT22;2238;50.180;9.230;2022-08-19T16:50:31;26.30;99.90
4451;DHT22;2238;50.180;9.230;2022-08-19T16:53:32;26.40;99.90
4451;DHT22;2238;50.180;9.230;2022-08-19T16:56:33;26.40;99.90
4451;DHT22;2238;50.180;9.230;2022-08-19T16:59:34;26.30;99.90
4451;DHT22;2238;50.180;9.230;2022-08-19T17:02:35;26.00;99.90
4451;DHT22;2238;50.180;9.230;2022-08-19T17:05:46;25.50;99.90
4451;DHT22;2238;50.180;9.230;2022-08-19T17:08:51;25.50;99.90
4451;DHT22;2238;50.180;9.230;2022-08-19T17:11:52;25.50;99.90
4451;DHT22;2238;50.180;9.230;2022-08-19T17:14:53;25.90;99.90
4451;DHT22;2238;50.180;9.230;2022-08-19T17:17:58;25.30;99.90
4451;DHT22;2238;50.180;9.230;2022-08-19T17:21:00;25.30;99.90
4451;DHT22;2238;50.180;9.230;2022-08-19T17:24:03;25.10;99.90
4451;DHT22;2238;50.180;9.230;2022-08-19T17:27:04;25.00;99.90
4451;DHT22;2238;50.180;9.230;2022-08-19T17:30:05;24.80;99.90
4451;DHT22;2238;50.180;9.230;2022-08-19T17:33:06;24.70;99.90
4451;DHT22;2238;50.180;9.230;2022-08-19T17:36:07;25.90;99.90
4451;DHT22;2238;50.180;9.230;2022-08-19T17:39:07;24.60;99.90
4451;DHT22;2238;50.180;9.230;2022-08-19T17:42:08;24.50;99.90
4451;DHT22;2238;50.180;9.230;2022-08-19T17:45:10;24.40;99.90
4451;DHT22;2238;50.180;9.230;2022-08-19T17:48:11;24.40;99.90
4451;DHT22;2238;50.180;9.230;2022-08-19T17:51:18;24.20;99.90
4451;DHT22;2238;50.180;9.230;2022-08-19T17:54:21;24.40;99.90
4451;DHT22;2238;50.180;9.230;2022-08-19T17:57:21;27.40;99.90
4451;DHT22;2238;50.180;9.230;2022-08-19T18:00:22;24.30;99.90
4451;DHT22;2238;50.180;9.230;2022-08-19T18:03:22;24.40;99.90
4451;DHT22;2238;50.180;9.230;2022-08-19T18:06:23;24.30;99.90
4451;DHT22;2238;50.180;9.230;2022-08-19T18:09:30;24.30;99.90
4451;DHT22;2238;50.180;9.230;2022-08-19T18:12:30;24.50;99.90
4451;DHT22;2238;50.180;9.230;2022-08-19T18:15:31;25.30;99.90
4451;DHT22;2238;50.180;9.230;2022-08-19T18:18:32;24.20;99.90
4451;DHT22;2238;50.180;9.230;2022-08-19T18:21:32;24.10;99.90
4451;DHT22;2238;50.180;9.230;2022-08-19T18:24:40;25.20;99.90
4451;DHT22;2238;50.180;9.230;2022-08-19T18:27:40;23.90;99.90
4451;DHT22;2238;50.180;9.230;2022-08-19T18:30:42;23.80;99.90
4451;DHT22;2238;50.180;9.230;2022-08-19T18:33:45;23.80;99.90
4451;DHT22;2238;50.180;9.230;2022-08-19T18:36:46;23.90;99.90
4451;DHT22;2238;50.180;9.230;2022-08-19T18:39:46;26.00;99.90
4451;DHT22;2238;50.180;9.230;2022-08-19T18:43:06;23.50;99.90
4451;DHT22;2238;50.180;9.230;2022-08-19T18:46:10;23.20;99.90
4451;DHT22;2238;50.180;9.230;2022-08-19T18:49:31;24.10;99.90
4451;DHT22;2238;50.180;9.230;2022-08-19T18:52:31;23.00;99.90
4451;DHT22;2238;50.180;9.230;2022-08-19T18:55:32;23.00;99.90
4451;DHT22;2238;50.180;9.230;2022-08-19T18:58:33;22.80;99.90
4451;DHT22;2238;50.180;9.230;2022-08-19T19:01:38;22.80;99.90
4451;DHT22;2238;50.180;9.230;2022-08-19T19:04:39;22.70;99.90
4451;DHT22;2238;50.180;9.230;2022-08-19T19:07:41;22.60;99.90
4451;DHT22;2238;50.180;9.230;2022-08-19T19:10:41;22.60;99.90
4451;DHT22;2238;50.180;9.230;2022-08-19T19:13:42;22.50;99.90
4451;DHT22;2238;50.180;9.230;2022-08-19T19:16:46;24.70;99.90
4451;DHT22;2238;50.180;9.230;2022-08-19T19:19:46;22.50;99.90
4451;DHT22;2238;50.180;9.230;2022-08-19T19:22:47;22.70;99.90
4451;DHT22;2238;50.180;9.230;2022-08-19T19:25:48;22.70;99.90
4451;DHT22;2238;50.180;9.230;2022-08-19T19:28:50;24.00;99.90
4451;DHT22;2238;50.180;9.230;2022-08-19T19:31:50;25.40;99.90
4451;DHT22;2238;50.180;9.230;2022-08-19T19:34:51;22.70;99.90
4451;DHT22;2238;50.180;9.230;2022-08-19T19:37:52;25.10;99.90
4451;DHT22;2238;50.180;9.230;2022-08-19T19:40:53;22.60;99.90
4451;DHT22;2238;50.180;9.230;2022-08-19T19:43:55;22.60;99.90
4451;DHT22;2238;50.180;9.230;2022-08-19T19:46:57;24.80;99.90
4451;DHT22;2238;50.180;9.230;2022-08-19T19:49:59;22.90;99.90
4451;DHT22;2238;50.180;9.230;2022-08-19T19:53:01;22.80;99.90
4451;DHT22;2238;50.180;9.230;2022-08-19T19:56:02;22.60;99.90
4451;DHT22;2238;50.180;9.230;2022-08-19T19:59:03;22.70;99.90
4451;DHT22;2238;50.180;9.230;2022-08-19T20:02:05;22.60;99.90
4451;DHT22;2238;50.180;9.230;2022-08-19T20:05:05;22.80;99.90
4451;DHT22;2238;50.180;9.230;2022-08-19T20:08:07;22.70;99.90
4451;DHT22;2238;50.180;9.230;2022-08-19T20:14:33;22.60;99.90
4451;DHT22;2238;50.180;9.230;2022-08-19T20:17:37;22.90;99.90
4451;DHT22;2238;50.180;9.230;2022-08-19T20:20:42;23.40;99.90
4451;DHT22;2238;50.180;9.230;2022-08-19T20:23:44;22.70;99.90
4451;DHT22;2238;50.180;9.230;2022-08-19T20:26:45;23.00;99.90
4451;DHT22;2238;50.180;9.230;2022-08-19T20:29:46;25.70;99.90
4451;DHT22;2238;50.180;9.230;2022-08-19T20:32:48;22.90;99.90
4451;DHT22;2238;50.180;9.230;2022-08-19T20:35:49;22.70;99.90
4451;DHT22;2238;50.180;9.230;2022-08-19T20:38:51;22.80;99.90
4451;DHT22;2238;50.180;9.230;2022-08-19T20:41:52;22.50;99.90
4451;DHT22;2238;50.180;9.230;2022-08-19T20:44:52;22.60;99.90
4451;DHT22;2238;50.180;9.230;2022-08-19T20:47:53;23.00;99.90